Time;durP1;ratioP1;P1;durP2;ratioP2;P2;SDS_P1;SDS_P2;PMS_P1;PMS_P2;Temp;Humidity;BMP_temperature;BMP_pressure;BME280_temperature;BME280_humidity;BME280_pressure;Samples;Min_cycle;Max_cycle;Signal;HPM_P1;HPM_P2
2020/12/28 00:00:42;;;;;;;;;8.00;4.50;;;;;10.34;51.09;96521.53;4719043;28;103366;-76
2020/12/28 00:03:11;;;;;;;;;4.25;4.00;;;;;10.36;51.31;96511.28;4707388;28;103111;-76
2020/12/28 00:05:39;;;;;;;;;4.00;4.00;;;;;10.34;51.51;96509.91;4688483;29;102960;-76
2020/12/28 00:08:06;;;;;;;;;10.00;4.00;;;;;10.35;51.13;96495.34;4701782;29;105287;-76
2020/12/28 00:10:33;;;;;;;;;4.50;3.50;;;;;10.35;51.35;96473.75;4699959;29;102721;-76
2020/12/28 00:13:00;;;;;;;;;3.75;3.00;;;;;10.34;51.69;96467.50;4706433;29;102824;-76
2020/12/28 00:15:28;;;;;;;;;4.00;4.00;;;;;10.36;51.52;96478.06;4718549;28;103102;-76
2020/12/28 00:17:57;;;;;;;;;4.00;3.25;;;;;10.34;51.16;96467.50;4700624;29;104087;-75
2020/12/28 00:20:29;;;;;;;;;4.75;4.00;;;;;10.33;51.47;96455.06;4710408;28;105278;-75
2020/12/28 00:22:56;;;;;;;;;3.00;2.50;;;;;10.34;51.29;96451.31;4677561;28;103056;-76
2020/12/28 00:25:26;;;;;;;;;3.25;3.25;;;;;10.33;51.46;96441.56;4695412;29;104813;-76
2020/12/28 00:27:53;;;;;;;;;6.00;3.25;;;;;10.34;50.86;96435.09;4699536;29;104087;-76
2020/12/28 00:30:20;;;;;;;;;5.00;4.00;;;;;10.32;51.09;96445.31;4677800;28;102967;-76
2020/12/28 00:32:46;;;;;;;;;4.50;4.00;;;;;10.31;51.64;96446.41;4711874;28;103491;-76
2020/12/28 00:35:13;;;;;;;;;3.25;3.00;;;;;10.31;51.14;96451.81;4699359;29;103369;-76
2020/12/28 00:37:40;;;;;;;;;5.00;4.00;;;;;10.31;51.50;96449.13;4698673;29;104028;-76
2020/12/28 00:40:07;;;;;;;;;4.00;3.00;;;;;10.31;51.30;96443.72;4726900;29;103115;-76
2020/12/28 00:42:34;;;;;;;;;4.00;3.00;;;;;10.31;51.36;96442.91;4706638;29;102943;-76
2020/12/28 00:45:01;;;;;;;;;3.50;3.00;;;;;10.31;51.27;96430.22;4710377;29;102785;-76
2020/12/28 00:47:32;;;;;;;;;3.25;3.25;;;;;10.32;51.22;96421.03;4700340;29;104258;-75
2020/12/28 00:50:05;;;;;;;;;6.00;5.00;;;;;10.41;51.13;96424.91;4700488;29;102823;-76
2020/12/28 00:52:31;;;;;;;;;3.00;3.00;;;;;10.45;51.09;96404.41;4712354;29;102991;-76
2020/12/28 00:55:01;;;;;;;;;5.75;3.50;;;;;10.48;51.06;96408.50;4703088;29;103079;-76
2020/12/28 00:57:35;;;;;;;;;5.50;4.25;;;;;10.50;50.66;96395.53;4705994;28;107314;-76
2020/12/28 01:00:09;;;;;;;;;5.50;4.75;;;;;10.47;51.40;96391.47;4720606;28;104830;-76
2020/12/28 01:02:41;;;;;;;;;3.75;3.25;;;;;10.47;51.15;96402.28;4705802;29;104520;-76
2020/12/28 01:05:15;;;;;;;;;4.50;3.25;;;;;10.45;50.78;96387.38;4719465;29;102822;-76
2020/12/28 01:07:45;;;;;;;;;3.75;3.75;;;;;10.45;51.01;96393.59;4702539;28;103992;-76
2020/12/28 01:10:14;;;;;;;;;3.75;3.50;;;;;10.45;50.82;96390.91;4672598;28;104225;-76
2020/12/28 01:12:43;;;;;;;;;3.00;3.00;;;;;10.47;50.59;96399.59;4693484;29;103006;-76
2020/12/28 01:15:15;;;;;;;;;4.00;2.25;;;;;10.48;50.48;96376.09;4705721;28;102934;-76
2020/12/28 01:17:45;;;;;;;;;3.00;3.00;;;;;10.47;50.91;96369.88;4665715;29;104585;-76
2020/12/28 01:20:13;;;;;;;;;2.00;2.00;;;;;10.48;50.59;96376.09;4694080;29;102826;-76
2020/12/28 01:22:44;;;;;;;;;4.50;4.00;;;;;10.46;50.74;96368.22;4693443;29;102924;-76
2020/12/28 01:25:11;;;;;;;;;3.75;2.00;;;;;10.46;50.86;96352.03;4707256;29;102996;-76
2020/12/28 01:27:43;;;;;;;;;2.00;1.25;;;;;10.45;50.91;96354.97;4696709;28;104129;-76
2020/12/28 01:30:12;;;;;;;;;3.25;3.25;;;;;10.43;50.65;96352.53;4699045;28;102748;-76
2020/12/28 01:32:38;;;;;;;;;3.00;3.00;;;;;10.43;50.90;96351.72;4701727;29;103791;-76
2020/12/28 01:35:05;;;;;;;;;2.50;2.00;;;;;10.43;50.70;96351.72;4708045;28;103274;-76
2020/12/28 01:37:35;;;;;;;;;2.00;1.25;;;;;10.45;50.99;96361.19;4691343;29;108708;-76
2020/12/28 01:40:04;;;;;;;;;3.50;2.00;;;;;10.44;50.81;96359.56;4709994;28;105175;-76
2020/12/28 01:42:31;;;;;;;;;2.75;2.75;;;;;10.43;50.79;96341.72;4705785;29;104192;-76
2020/12/28 01:44:58;;;;;;;;;4.00;2.50;;;;;10.43;51.14;96347.13;4699474;29;103000;-76
2020/12/28 01:47:25;;;;;;;;;3.00;2.00;;;;;10.44;50.96;96332.56;4695333;29;104311;-77
2020/12/28 01:49:52;;;;;;;;;4.75;4.00;;;;;10.43;50.67;96336.31;4697553;29;102924;-77
2020/12/28 01:52:19;;;;;;;;;3.50;2.75;;;;;10.42;50.43;96332.00;4699970;29;103360;-77
2020/12/28 01:54:45;;;;;;;;;5.00;2.75;;;;;10.41;50.80;96338.47;4718846;29;103057;-77
2020/12/28 01:57:14;;;;;;;;;3.00;2.75;;;;;10.41;50.88;96326.84;4710623;29;103958;-77
2020/12/28 01:59:41;;;;;;;;;3.50;2.50;;;;;10.40;50.75;96328.72;4708369;29;104805;-77
2020/12/28 02:02:07;;;;;;;;;3.50;2.25;;;;;10.41;51.13;96324.94;4703100;29;103625;-77
2020/12/28 02:04:34;;;;;;;;;4.00;3.00;;;;;10.40;50.75;96323.31;4698933;29;103165;-77
2020/12/28 02:07:01;;;;;;;;;2.00;2.00;;;;;10.41;51.07;96308.75;4681628;29;108578;-77
2020/12/28 02:09:28;;;;;;;;;3.00;3.00;;;;;10.39;51.05;96301.97;4692290;29;102893;-77
2020/12/28 02:11:55;;;;;;;;;3.00;2.75;;;;;10.41;51.09;96294.41;4704115;28;102966;-77
2020/12/28 02:14:22;;;;;;;;;4.50;3.25;;;;;10.40;51.10;96285.50;4708639;28;103015;-77
2020/12/28 02:16:49;;;;;;;;;2.00;2.00;;;;;10.40;51.16;96288.19;4699550;28;104289;-77
2020/12/28 02:19:15;;;;;;;;;3.50;3.00;;;;;10.40;51.00;96284.69;4698526;28;103013;-77
2020/12/28 02:21:42;;;;;;;;;2.00;2.00;;;;;10.39;51.05;96302.78;4711147;29;104704;-77
2020/12/28 02:24:09;;;;;;;;;3.00;3.00;;;;;10.39;50.81;96283.06;4703065;29;103057;-77
2020/12/28 02:26:36;;;;;;;;;4.50;2.75;;;;;10.39;50.74;96292.00;4712795;28;104494;-77
2020/12/28 02:29:02;;;;;;;;;4.00;3.00;;;;;10.38;51.05;96290.34;4703125;29;102731;-77
2020/12/28 02:31:29;;;;;;;;;4.00;3.00;;;;;10.38;50.85;96289.53;4692810;29;102999;-77
2020/12/28 02:33:56;;;;;;;;;3.75;2.00;;;;;10.38;51.13;96292.22;4701126;29;102981;-77
2020/12/28 02:36:23;;;;;;;;;2.75;2.00;;;;;10.38;51.06;96284.94;4698346;29;104305;-77
2020/12/28 02:38:50;;;;;;;;;2.00;2.00;;;;;10.38;50.97;96271.44;4695183;29;103067;-77
2020/12/28 02:41:16;;;;;;;;;4.50;3.00;;;;;10.39;51.15;96269.56;4698399;29;102870;-77
2020/12/28 02:43:43;;;;;;;;;3.25;3.00;;;;;10.37;50.63;96261.69;4699796;29;104234;-77
2020/12/28 02:46:10;;;;;;;;;3.75;3.00;;;;;10.36;51.14;96270.88;4708511;29;103964;-77
2020/12/28 02:48:37;;;;;;;;;2.75;2.00;;;;;10.37;50.71;96286.00;4700990;28;103504;-77
2020/12/28 02:51:04;;;;;;;;;2.00;2.00;;;;;10.38;51.09;96281.44;4709824;29;104288;-77
2020/12/28 02:53:31;;;;;;;;;2.00;2.00;;;;;10.37;50.71;96282.50;4699231;29;102938;-77
2020/12/28 02:55:57;;;;;;;;;1.75;1.75;;;;;10.37;50.47;96275.22;4697744;28;104120;-77
2020/12/28 02:58:24;;;;;;;;;2.50;2.00;;;;;10.37;50.72;96267.09;4696492;29;102881;-77
2020/12/28 03:00:51;;;;;;;;;2.50;2.25;;;;;10.38;50.99;96268.75;4702681;28;102916;-77
2020/12/28 03:03:17;;;;;;;;;3.50;2.00;;;;;10.38;50.90;96266.03;4706336;28;102996;-77
2020/12/28 03:05:44;;;;;;;;;3.00;2.00;;;;;10.46;50.99;96253.94;4698927;28;103922;-77
2020/12/28 03:08:10;;;;;;;;;2.00;2.00;;;;;10.48;50.81;96255.31;4709248;28;103046;-77
2020/12/28 03:10:37;;;;;;;;;2.00;1.75;;;;;10.52;50.49;96275.34;4703083;28;102751;-77
2020/12/28 03:13:03;;;;;;;;;4.00;3.00;;;;;10.53;50.24;96274.28;4711825;29;102908;-77
2020/12/28 03:15:30;;;;;;;;;2.75;1.25;;;;;10.56;50.51;96271.06;4695545;29;104131;-77
2020/12/28 03:17:57;;;;;;;;;3.00;3.00;;;;;10.55;50.44;96258.63;4715272;29;102893;-77
2020/12/28 03:20:23;;;;;;;;;2.25;2.25;;;;;10.56;50.44;96254.84;4716856;28;102921;-77
2020/12/28 03:22:50;;;;;;;;;5.00;3.25;;;;;10.55;50.05;96247.00;4707151;28;103339;-77
2020/12/28 03:25:17;;;;;;;;;3.00;3.00;;;;;10.55;50.33;96253.22;4699346;28;104342;-77
2020/12/28 03:27:43;;;;;;;;;4.00;2.00;;;;;10.54;50.09;96251.56;4704982;28;102856;-77
2020/12/28 03:30:10;;;;;;;;;2.50;2.00;;;;;10.54;50.13;96261.56;4704023;29;103564;-77
2020/12/28 03:32:36;;;;;;;;;2.00;2.00;;;;;10.54;50.06;96259.69;4700944;29;104529;-77
2020/12/28 03:35:18;;;;;;;;;2.00;2.00;;;;;10.52;50.59;96253.75;4693735;29;104641;-77
2020/12/28 03:37:45;;;;;;;;;3.00;2.00;;;;;10.52;50.24;96253.75;4701393;29;103594;-77
2020/12/28 03:40:11;;;;;;;;;2.25;2.00;;;;;10.52;50.35;96259.16;4711088;28;104777;-77
2020/12/28 03:42:38;;;;;;;;;3.00;2.00;;;;;10.53;50.44;96255.38;4696989;29;103119;-77
2020/12/28 03:45:05;;;;;;;;;2.50;2.00;;;;;10.51;50.24;96237.78;4708440;29;104220;-77
2020/12/28 03:47:31;;;;;;;;;2.75;2.00;;;;;10.49;50.43;96234.53;4714716;28;103302;-77
2020/12/28 03:49:58;;;;;;;;;2.00;1.00;;;;;10.47;50.58;96237.47;4702968;29;103137;-77
2020/12/28 03:52:25;;;;;;;;;1.75;1.75;;;;;10.47;50.28;96229.38;4689963;29;103464;-77
2020/12/28 03:54:52;;;;;;;;;2.00;2.00;;;;;10.47;50.46;96234.78;4688421;28;104673;-77
2020/12/28 03:57:19;;;;;;;;;2.00;2.00;;;;;10.45;50.70;96211.78;4675533;28;104037;-77
2020/12/28 03:59:45;;;;;;;;;2.25;2.25;;;;;10.45;50.66;96212.59;4664486;29;103925;-77
2020/12/28 04:02:12;;;;;;;;;2.00;2.00;;;;;10.45;50.47;96223.41;4703180;29;103131;-77
2020/12/28 04:04:40;;;;;;;;;2.50;2.00;;;;;10.46;50.44;96216.13;4713381;29;103545;-77
2020/12/28 04:07:09;;;;;;;;;2.00;2.00;;;;;10.45;50.74;96228.81;4686212;28;102949;-77
2020/12/28 04:09:36;;;;;;;;;2.75;2.25;;;;;10.42;50.46;96218.53;4697093;29;102931;-77
2020/12/28 04:12:02;;;;;;;;;2.00;2.00;;;;;10.49;50.47;96227.22;4710076;28;102915;-77
2020/12/28 04:14:29;;;;;;;;;1.00;1.00;;;;;10.53;50.58;96222.94;4701571;28;104071;-76
2020/12/28 04:16:56;;;;;;;;;1.00;1.00;;;;;10.57;50.53;96218.66;4713015;28;103196;-77
2020/12/28 04:19:23;;;;;;;;;1.50;1.50;;;;;10.61;50.20;96202.72;4708251;29;102918;-77
2020/12/28 04:21:49;;;;;;;;;2.00;2.00;;;;;10.65;50.42;96204.66;4710679;28;103173;-77
2020/12/28 04:24:16;;;;;;;;;1.00;1.00;;;;;10.67;50.52;96207.91;4688618;29;104208;-77
2020/12/28 04:26:43;;;;;;;;;0.00;0.00;;;;;10.70;50.48;96202.00;4709933;28;104552;-77
2020/12/28 04:29:11;;;;;;;;;2.00;1.00;;;;;10.74;50.26;96200.41;4701752;28;103133;-77
2020/12/28 04:31:38;;;;;;;;;1.25;1.00;;;;;10.77;49.99;96200.94;4709956;28;103071;-77
2020/12/28 04:34:05;;;;;;;;;0.25;0.25;;;;;10.80;50.08;96192.31;4710816;28;104033;-78
2020/12/28 04:36:32;;;;;;;;;2.00;1.00;;;;;10.82;50.28;96187.44;4697836;29;102849;-78
2020/12/28 04:38:58;;;;;;;;;1.00;0.75;;;;;10.85;49.98;96176.13;4702618;28;103221;-77
2020/12/28 04:41:27;;;;;;;;;2.25;1.50;;;;;10.86;50.10;96164.22;4711181;28;103154;-78
2020/12/28 04:43:55;;;;;;;;;2.00;0.75;;;;;10.86;50.01;96154.22;4730775;29;104312;-78
2020/12/28 04:46:21;;;;;;;;;0.75;0.00;;;;;10.87;49.94;96141.53;4721395;28;103814;-77
2020/12/28 04:48:48;;;;;;;;;4.00;1.75;;;;;10.89;49.95;96148.31;4701452;29;102857;-78
2020/12/28 04:51:15;;;;;;;;;2.00;2.00;;;;;10.88;50.26;96138.56;4703822;28;103125;-77
2020/12/28 04:53:42;;;;;;;;;0.75;0.75;;;;;10.88;49.84;96137.75;4695494;29;104749;-77
2020/12/28 04:56:08;;;;;;;;;1.75;1.00;;;;;10.90;49.81;96131.00;4706569;28;103001;-77
2020/12/28 04:58:36;;;;;;;;;1.00;1.00;;;;;10.92;49.83;96131.56;4710532;29;102966;-78
2020/12/28 05:01:03;;;;;;;;;1.75;1.00;;;;;10.92;49.71;96128.84;4709206;29;103774;-77
2020/12/28 05:03:29;;;;;;;;;1.00;1.00;;;;;10.95;49.88;96132.91;4696012;29;104016;-78
2020/12/28 05:05:56;;;;;;;;;4.00;2.75;;;;;10.95;50.11;96122.09;4711916;29;102950;-77
2020/12/28 05:08:23;;;;;;;;;1.75;1.75;;;;;10.96;49.75;96113.72;4697487;29;103034;-76
2020/12/28 05:10:49;;;;;;;;;2.75;2.00;;;;;10.98;49.82;96116.19;4711283;28;103071;-77
2020/12/28 05:13:18;;;;;;;;;3.00;1.25;;;;;10.98;49.71;96121.59;4701726;29;104671;-77
2020/12/28 05:15:52;;;;;;;;;1.25;0.75;;;;;10.97;49.89;96119.94;4703724;29;102754;-77
2020/12/28 05:18:18;;;;;;;;;2.00;1.00;;;;;10.98;49.76;96116.19;4707191;29;102754;-76
2020/12/28 05:20:47;;;;;;;;;1.50;1.00;;;;;10.97;49.66;96111.84;4716196;28;102941;-77
2020/12/28 05:23:15;;;;;;;;;1.00;1.00;;;;;10.96;50.33;96110.22;4700616;29;104572;-77
2020/12/28 05:25:42;;;;;;;;;1.00;0.25;;;;;10.97;49.61;96109.13;4704547;29;103463;-77
2020/12/28 05:28:09;;;;;;;;;2.00;0.75;;;;;10.97;49.80;96098.31;4703411;28;102707;-76
2020/12/28 05:30:36;;;;;;;;;1.00;1.00;;;;;10.94;49.80;96086.13;4700767;29;104349;-77
2020/12/28 05:33:05;;;;;;;;;4.00;2.00;;;;;10.94;49.79;96083.44;4708194;29;109604;-77
2020/12/28 05:35:32;;;;;;;;;2.00;1.00;;;;;10.92;50.17;96079.38;4695486;29;102907;-77
2020/12/28 05:38:02;;;;;;;;;1.00;1.00;;;;;10.94;50.43;96096.94;4680795;29;102824;-77
2020/12/28 05:40:29;;;;;;;;;1.00;0.75;;;;;10.92;49.82;96095.59;4715103;29;103332;-77
2020/12/28 05:42:56;;;;;;;;;1.25;1.00;;;;;10.90;49.42;96098.56;4703333;29;104482;-76
2020/12/28 05:45:23;;;;;;;;;1.00;1.00;;;;;10.91;49.80;96093.97;4709060;28;104016;-76
2020/12/28 05:47:56;;;;;;;;;1.00;1.00;;;;;10.91;49.75;96102.06;4717328;28;102727;-76
2020/12/28 05:50:30;;;;;;;;;1.50;1.00;;;;;10.89;49.97;96090.72;4704011;28;102758;-77
2020/12/28 05:52:59;;;;;;;;;2.00;2.00;;;;;10.88;49.85;96099.91;4698454;28;104630;-77
2020/12/28 05:55:27;;;;;;;;;1.50;1.00;;;;;10.87;49.83;96082.06;4709864;28;102830;-76
2020/12/28 05:57:54;;;;;;;;;1.00;1.00;;;;;10.85;50.22;96090.41;4686561;29;103273;-77
2020/12/28 06:00:21;;;;;;;;;0.25;0.25;;;;;10.84;50.29;96091.53;4688480;28;103119;-77
2020/12/28 06:02:48;;;;;;;;;2.00;1.00;;;;;10.85;50.04;96090.41;4669346;28;104003;-77
2020/12/28 06:05:17;;;;;;;;;1.50;1.00;;;;;10.82;50.46;96087.44;4667551;28;104810;-77
2020/12/28 06:07:44;;;;;;;;;1.00;1.00;;;;;10.81;50.18;96078.50;4694879;29;103037;-77
2020/12/28 06:10:11;;;;;;;;;1.00;1.00;;;;;10.80;50.16;96093.13;4686735;29;103068;-76
2020/12/28 06:12:38;;;;;;;;;2.50;1.00;;;;;10.78;49.99;96083.63;4699290;28;104409;-77
2020/12/28 06:15:20;;;;;;;;;1.00;1.00;;;;;10.78;50.14;96084.44;4703932;29;103813;-77
2020/12/28 06:17:47;;;;;;;;;1.00;0.75;;;;;10.77;50.13;96071.19;4659294;28;103011;-76
2020/12/28 06:20:14;;;;;;;;;1.00;1.00;;;;;10.76;50.29;96080.41;4712719;28;103236;-77
2020/12/28 06:22:44;;;;;;;;;1.00;1.00;;;;;10.73;50.14;96077.13;4698267;28;105706;-76
2020/12/28 06:25:17;;;;;;;;;1.00;1.00;;;;;10.74;50.28;96081.47;4706282;29;103349;-76
2020/12/28 06:27:44;;;;;;;;;1.00;0.75;;;;;10.72;50.48;96064.69;4684207;28;102947;-77
2020/12/28 06:30:16;;;;;;;;;1.00;1.00;;;;;10.71;50.29;96071.19;4696626;29;102904;-77
2020/12/28 06:32:43;;;;;;;;;1.00;1.00;;;;;10.73;50.47;96066.31;4697769;28;104291;-77
2020/12/28 06:35:14;;;;;;;;;1.00;1.00;;;;;10.71;50.18;96067.69;4698309;28;102946;-77
2020/12/28 06:37:48;;;;;;;;;0.25;0.25;;;;;10.69;50.39;96054.41;4702076;29;102855;-77
2020/12/28 06:40:27;;;;;;;;;0.75;0.75;;;;;10.68;50.35;96052.78;4702129;28;103091;-77
2020/12/28 06:43:18;;;;;;;;;1.25;1.00;;;;;10.67;50.35;96056.56;4695872;29;106992;-77
2020/12/28 06:58:26;;;;;;;;;0.00;0.00;;;;;10.58;50.46;96033.03;4622188;23;107002;-76
2020/12/28 07:01:00;;;;;;;;;1.00;0.25;;;;;10.59;50.57;96046.25;4570712;28;103623;-76
2020/12/28 07:03:27;;;;;;;;;0.00;0.00;;;;;10.55;50.31;96053.28;4501436;28;103963;-76
2020/12/28 07:06:01;;;;;;;;;0.00;0.00;;;;;10.55;50.38;96042.47;4638283;28;103012;-76
2020/12/28 07:08:33;;;;;;;;;0.00;0.00;;;;;10.56;50.71;96037.88;4573441;29;105192;-77
2020/12/28 07:11:06;;;;;;;;;0.00;0.00;;;;;10.56;50.64;96036.00;4586348;29;103245;-76
2020/12/28 07:13:33;;;;;;;;;0.00;0.00;;;;;10.58;50.50;96028.41;4591422;28;103967;-76
2020/12/28 07:16:03;;;;;;;;;1.00;1.00;;;;;10.54;50.42;96018.41;4604772;28;104369;-76
2020/12/28 07:18:33;;;;;;;;;0.00;0.00;;;;;10.53;50.43;96023.00;4658925;28;104225;-76
2020/12/28 07:21:26;;;;;;;;;0.75;0.75;;;;;10.50;50.43;96006.50;4641149;29;103385;-77
2020/12/28 07:23:56;;;;;;;;;1.00;0.00;;;;;10.54;50.75;96019.22;4453162;28;104297;-76
2020/12/28 07:26:29;;;;;;;;;0.00;0.00;;;;;10.54;50.83;96027.31;4552264;28;105839;-76
2020/12/28 07:29:01;;;;;;;;;0.25;0.00;;;;;10.54;50.10;96024.63;4607905;28;103829;-76
2020/12/28 07:31:41;;;;;;;;;0.00;0.00;;;;;10.53;50.67;96014.09;4513999;28;103095;-76
2020/12/28 07:34:18;;;;;;;;;0.00;0.00;;;;;10.59;50.45;96013.84;4519833;28;104181;-76
2020/12/28 07:36:48;;;;;;;;;0.00;0.00;;;;;10.60;50.34;96012.75;4493718;28;103194;-76
2020/12/28 07:39:54;;;;;;;;;0.50;0.00;;;;;10.58;50.56;96004.09;4493732;28;104555;-76
2020/12/28 07:42:31;;;;;;;;;0.25;0.00;;;;;10.49;50.39;95978.66;4500184;29;103442;-77
2020/12/28 07:45:44;;;;;;;;;;;;;;;;;;;;;
2020/12/28 07:48:18;;;;;;;;;0.00;0.00;;;;;10.59;50.45;95983.28;4549213;29;102918;-76
2020/12/28 07:50:48;;;;;;;;;2.00;0.00;;;;;10.59;50.58;95980.59;4680007;28;104095;-76
2020/12/28 07:53:17;;;;;;;;;0.00;0.00;;;;;10.58;50.57;95979.00;4658697;29;103040;-76
2020/12/28 07:55:48;;;;;;;;;0.00;0.00;;;;;10.57;50.40;95974.66;4682727;28;105308;-76
2020/12/28 07:58:25;;;;;;;;;1.00;1.00;;;;;10.58;50.51;95981.69;4678179;28;102969;-76
2020/12/28 08:00:52;;;;;;;;;0.00;0.00;;;;;10.53;50.99;95993.28;4633542;28;104330;-76
2020/12/28 08:03:44;;;;;;;;;1.00;0.75;;;;;10.57;50.74;95990.88;4693915;28;104593;-77
2020/12/28 08:06:13;;;;;;;;;0.00;0.00;;;;;10.59;50.70;95994.91;4703303;29;102476;-76
2020/12/28 08:08:40;;;;;;;;;0.00;0.00;;;;;10.57;51.04;95969.25;4727765;28;102610;-76
2020/12/28 08:11:07;;;;;;;;;1.50;0.75;;;;;10.58;50.58;95965.47;4707777;28;102945;-77
2020/12/28 08:13:35;;;;;;;;;0.00;0.00;;;;;10.59;50.79;95964.38;4713206;28;102643;-76
2020/12/28 08:16:12;;;;;;;;;0.00;0.00;;;;;10.59;50.62;95969.78;4701983;28;102474;-77
2020/12/28 08:18:55;;;;;;;;;0.00;0.00;;;;;10.58;50.40;95973.59;4689355;29;103291;-76
2020/12/28 08:21:22;;;;;;;;;0.00;0.00;;;;;10.57;50.74;95972.78;4660970;28;103968;-77
2020/12/28 08:23:51;;;;;;;;;1.00;0.00;;;;;10.56;50.08;95979.25;4703039;28;102542;-77
2020/12/28 08:26:22;;;;;;;;;0.00;0.00;;;;;10.56;50.48;95973.84;4703159;28;103138;-77
2020/12/28 08:28:53;;;;;;;;;1.00;1.00;;;;;10.55;50.66;95968.69;4709595;28;104713;-77
2020/12/28 08:31:26;;;;;;;;;1.00;0.75;;;;;10.56;50.00;95960.34;4708414;28;103017;-77
2020/12/28 08:34:05;;;;;;;;;1.75;0.00;;;;;10.54;50.77;95951.66;4724122;28;103051;-77
2020/12/28 08:36:33;;;;;;;;;0.00;0.00;;;;;10.53;50.35;95944.66;4700119;28;102606;-78
2020/12/28 08:39:20;;;;;;;;;1.00;1.00;;;;;10.56;50.73;95965.75;4710447;28;102395;-77
2020/12/28 08:41:54;;;;;;;;;0.50;0.50;;;;;10.55;50.73;95966.81;4596055;29;106831;-78
2020/12/28 08:44:33;;;;;;;;;2.00;0.50;;;;;10.57;50.39;95967.38;4717058;28;102860;-77
2020/12/28 08:47:11;;;;;;;;;0.00;0.00;;;;;10.56;50.30;95968.44;4700029;29;102628;-78
2020/12/28 08:49:40;;;;;;;;;1.00;0.00;;;;;10.57;50.64;95970.06;4704552;28;102457;-78
2020/12/28 08:52:18;;;;;;;;;1.00;0.00;;;;;10.58;50.57;95949.28;4691754;28;108492;-77
2020/12/28 08:54:55;;;;;;;;;1.00;1.00;;;;;10.58;50.64;95938.47;4646116;28;102540;-77
2020/12/28 08:57:23;;;;;;;;;0.00;0.00;;;;;10.57;50.52;95924.13;4692100;28;102299;-77
2020/12/28 08:59:51;;;;;;;;;0.00;0.00;;;;;10.58;50.46;95933.06;4700346;28;102924;-77
2020/12/28 09:02:22;;;;;;;;;1.75;1.00;;;;;10.59;50.66;95934.66;4706567;28;103358;-77
2020/12/28 09:04:49;;;;;;;;;0.50;0.50;;;;;10.60;50.68;95930.88;4709320;28;103312;-77
2020/12/28 09:07:16;;;;;;;;;1.00;0.50;;;;;10.59;50.92;95940.06;4712993;28;102771;-77
2020/12/28 09:09:44;;;;;;;;;0.00;0.00;;;;;10.58;50.30;95933.06;4721046;28;102682;-77
2020/12/28 09:12:11;;;;;;;;;1.00;1.00;;;;;10.60;50.61;95920.91;4702305;28;103716;-77
2020/12/28 09:14:38;;;;;;;;;1.00;0.25;;;;;10.60;50.45;95914.69;4690484;29;103973;-78
2020/12/28 09:17:14;;;;;;;;;1.00;1.00;;;;;10.61;50.41;95913.59;4698131;28;103784;-77
2020/12/28 09:19:41;;;;;;;;;0.25;0.25;;;;;10.64;50.47;95913.06;4718010;28;102544;-77
2020/12/28 09:22:08;;;;;;;;;1.00;1.00;;;;;10.67;50.36;95904.44;4705361;28;103940;-77
2020/12/28 09:24:35;;;;;;;;;1.00;1.00;;;;;10.70;50.42;95901.19;4697227;28;103260;-77
2020/12/28 09:27:02;;;;;;;;;1.00;0.50;;;;;10.73;50.47;95914.97;4691682;29;102424;-77
2020/12/28 09:29:29;;;;;;;;;1.00;1.00;;;;;10.75;50.34;95906.63;4698837;28;102406;-77
2020/12/28 09:31:56;;;;;;;;;0.00;0.00;;;;;10.76;50.26;95905.53;4700967;28;103046;-77
2020/12/28 09:34:23;;;;;;;;;0.00;0.00;;;;;10.77;50.28;95907.13;4708344;28;102532;-77
2020/12/28 09:37:06;;;;;;;;;0.50;0.00;;;;;10.77;50.31;95896.31;4693501;29;102473;-77
2020/12/28 09:39:33;;;;;;;;;1.50;0.50;;;;;10.77;50.13;95893.63;4689042;28;102648;-77
2020/12/28 09:42:00;;;;;;;;;0.00;0.00;;;;;10.76;50.77;95885.81;4705098;28;103362;-77
2020/12/28 09:44:28;;;;;;;;;1.00;1.00;;;;;10.76;50.48;95891.22;4713312;28;102768;-77
2020/12/28 09:46:57;;;;;;;;;1.25;1.00;;;;;10.79;50.21;95905.00;4703506;28;102535;-77
2020/12/28 09:49:24;;;;;;;;;1.00;1.00;;;;;10.79;50.06;95887.97;4730945;28;102588;-77
2020/12/28 09:51:54;;;;;;;;;1.00;1.00;;;;;10.80;50.32;95876.06;4703058;28;103082;-77
2020/12/28 09:54:21;;;;;;;;;1.00;1.00;;;;;10.79;50.04;95869.84;4690363;28;102455;-77
2020/12/28 09:57:06;;;;;;;;;0.75;0.75;;;;;10.79;50.25;95863.63;4681570;28;103407;-77
2020/12/28 09:59:37;;;;;;;;;0.75;0.00;;;;;10.79;50.25;95869.03;4660463;28;102640;-77
2020/12/28 10:02:05;;;;;;;;;1.00;1.00;;;;;10.79;50.08;95864.44;4671062;29;103693;-77
2020/12/28 10:04:32;;;;;;;;;0.00;0.00;;;;;10.81;50.00;95869.59;4678785;29;103605;-77
2020/12/28 10:06:59;;;;;;;;;2.00;1.00;;;;;10.79;50.03;95861.75;4671363;29;102675;-77
2020/12/28 10:09:26;;;;;;;;;0.00;0.00;;;;;10.79;50.01;95869.03;4700214;28;102430;-77
2020/12/28 10:12:13;;;;;;;;;1.00;1.00;;;;;10.79;50.21;95863.63;4709875;28;109658;-77
2020/12/28 10:14:40;;;;;;;;;1.25;0.25;;;;;10.80;50.07;95865.25;4702990;28;102355;-77
2020/12/28 10:17:07;;;;;;;;;0.00;0.00;;;;;10.80;49.94;95857.16;4700002;28;102527;-77
2020/12/28 10:19:34;;;;;;;;;1.00;0.00;;;;;10.80;50.04;95860.69;4709483;28;102934;-77
2020/12/28 10:22:01;;;;;;;;;1.25;1.25;;;;;10.78;49.87;95856.59;4699877;28;104313;-77
2020/12/28 10:24:28;;;;;;;;;0.00;0.00;;;;;10.75;49.78;95852.56;4684733;29;102451;-77
2020/12/28 10:26:55;;;;;;;;;1.00;0.00;;;;;10.71;50.26;95852.28;4704288;28;104489;-77
2020/12/28 10:29:21;;;;;;;;;0.00;0.00;;;;;10.71;50.05;95863.09;4701533;28;103601;-77
2020/12/28 10:31:49;;;;;;;;;0.00;0.00;;;;;10.74;50.06;95864.44;4698536;29;104256;-78
2020/12/28 10:34:16;;;;;;;;;0.00;0.00;;;;;10.70;50.07;95858.78;4697044;28;102477;-77
2020/12/28 10:36:46;;;;;;;;;0.00;0.00;;;;;10.72;49.84;95856.59;4711190;28;103695;-78
2020/12/28 10:39:16;;;;;;;;;0.00;0.00;;;;;10.76;50.21;95869.59;4705222;29;102890;-77
2020/12/28 10:41:46;;;;;;;;;2.50;0.00;;;;;10.79;50.20;95869.03;4696650;29;103047;-77
2020/12/28 10:44:18;;;;;;;;;2.00;1.50;;;;;10.77;50.04;95866.59;4701937;28;102279;-77
2020/12/28 10:46:45;;;;;;;;;0.00;0.00;;;;;10.78;50.03;95867.41;4692996;29;102352;-77
2020/12/28 10:49:12;;;;;;;;;1.00;0.00;;;;;10.80;50.46;95860.69;4713062;28;103039;-78
2020/12/28 10:51:39;;;;;;;;;0.00;0.00;;;;;10.87;50.39;95865.78;4694447;28;104052;-80
2020/12/28 10:54:06;;;;;;;;;1.50;0.00;;;;;10.98;50.84;95854.72;4688945;29;103456;-80
2020/12/28 10:56:32;;;;;;;;;0.25;0.00;;;;;11.01;50.90;95840.66;4650305;29;102539;-79
2020/12/28 10:59:02;;;;;;;;;2.00;1.25;;;;;10.98;50.87;95819.59;4630373;29;102611;-81
2020/12/28 11:01:33;;;;;;;;;2.75;1.00;;;;;11.06;51.41;95810.09;4617673;29;102810;-84
2020/12/28 11:04:03;;;;;;;;;2.50;2.00;;;;;11.15;51.01;95806.59;4679445;28;102432;-82
2020/12/28 11:06:51;;;;;;;;;0.75;0.75;;;;;11.09;52.32;95793.34;4646890;29;102502;-82
2020/12/28 11:09:17;;;;;;;;;3.00;1.50;;;;;11.09;51.54;95786.03;4632544;28;102536;-83
2020/12/28 11:11:48;;;;;;;;;1.25;1.25;;;;;11.10;51.85;95765.22;4718151;28;103818;-82
2020/12/28 11:14:16;;;;;;;;;2.67;1.00;;;;;11.09;51.62;95766.28;4711195;28;102382;-82
2020/12/28 11:16:43;;;;;;;;;2.00;2.00;;;;;11.09;51.80;95763.59;4704449;29;102512;-82
2020/12/28 11:19:09;;;;;;;;;1.00;1.00;;;;;11.03;51.82;95784.41;4713155;28;102390;-82
2020/12/28 11:21:36;;;;;;;;;2.00;2.00;;;;;11.05;51.91;95792.25;4726224;28;107840;-82
2020/12/28 11:24:03;;;;;;;;;2.75;2.00;;;;;11.06;51.94;95783.06;4704396;28;102418;-83
2020/12/28 11:26:31;;;;;;;;;3.00;1.50;;;;;11.05;52.06;95786.84;4710673;28;102400;-82
2020/12/28 11:28:59;;;;;;;;;2.00;1.50;;;;;11.04;52.17;95782.50;4678856;28;102922;-80
2020/12/28 11:31:25;;;;;;;;;2.00;1.00;;;;;11.01;51.95;95780.38;4691652;28;104554;-81
2020/12/28 11:33:58;;;;;;;;;1.00;1.00;;;;;11.02;52.21;95790.91;4701384;28;102508;-84
2020/12/28 11:36:25;;;;;;;;;2.25;1.75;;;;;10.98;51.99;95791.75;4667795;28;103276;-80
2020/12/28 11:38:54;;;;;;;;;2.00;1.00;;;;;10.97;51.75;95795.50;4719577;28;102652;-82
2020/12/28 11:41:23;;;;;;;;;1.00;1.00;;;;;10.94;51.55;95796.06;4654689;29;105107;-82
2020/12/28 11:43:51;;;;;;;;;2.00;1.75;;;;;10.99;51.82;95807.66;4702412;28;105032;-83
2020/12/28 11:46:17;;;;;;;;;2.00;1.00;;;;;11.00;51.84;95813.88;4706574;29;102865;-82
2020/12/28 11:48:46;;;;;;;;;1.50;1.50;;;;;11.00;51.91;95816.59;4707373;28;103110;-82